Time;durP1;ratioP1;P1;durP2;ratioP2;P2;SDS_P1;SDS_P2;PMS_P1;PMS_P2;Temp;Humidity;BMP_temperature;BMP_pressure;BME280_temperature;BME280_humidity;BME280_pressure;Samples;Min_cycle;Max_cycle;Signal;HPM_P1;HPM_P2
2020/12/08 00:01:36;;;;;;;;;;;20.90;38.70;;;;;;4923777;29;19911;-76
2020/12/08 00:04:03;;;;;;;;;;;21.00;38.70;;;;;;4923966;29;20327;-80
2020/12/08 00:06:30;;;;;;;;;;;21.20;39.60;;;;;;4936260;29;19910;-78
2020/12/08 00:08:59;;;;;;;;;;;21.30;39.70;;;;;;4920030;29;19921;-80
2020/12/08 00:11:26;;;;;;;;;;;21.30;39.40;;;;;;4922960;29;19918;-81
2020/12/08 00:13:54;;;;;;;;;;;21.00;39.80;;;;;;4916297;29;20246;-80
2020/12/08 00:16:20;;;;;;;;;;;21.10;39.40;;;;;;4918587;29;19921;-79
2020/12/08 00:18:47;;;;;;;;;;;21.10;39.70;;;;;;4918381;29;19998;-78
2020/12/08 00:21:16;;;;;;;;;;;21.10;38.30;;;;;;4911183;29;19954;-80
2020/12/08 00:23:43;;;;;;;;;;;20.90;40.50;;;;;;4915511;29;19915;-78
2020/12/08 00:26:12;;;;;;;;;;;21.00;40.60;;;;;;4919733;29;19910;-78
2020/12/08 00:28:39;;;;;;;;;;;21.30;39.40;;;;;;4902886;29;20338;-79
2020/12/08 00:31:06;;;;;;;;;;;21.60;38.90;;;;;;4917694;29;20356;-80
2020/12/08 00:33:33;;;;;;;;;;;21.70;38.50;;;;;;4918268;29;19926;-78
2020/12/08 00:35:59;;;;;;;;;;;21.80;37.60;;;;;;4920342;29;19919;-80
2020/12/08 00:38:29;;;;;;;;;;;22.30;36.50;;;;;;4920177;29;19926;-79
2020/12/08 00:40:55;;;;;;;;;;;22.50;36.10;;;;;;4937378;29;19966;-79
2020/12/08 00:43:22;;;;;;;;;;;22.70;36.10;;;;;;4923569;29;19978;-79
2020/12/08 00:45:49;;;;;;;;;;;22.80;36.30;;;;;;4928523;29;19910;-79
2020/12/08 00:48:15;;;;;;;;;;;23.00;35.90;;;;;;4917529;29;19918;-79
2020/12/08 00:50:42;;;;;;;;;;;23.20;35.60;;;;;;4918687;29;19911;-80
2020/12/08 00:53:09;;;;;;;;;;;23.30;34.50;;;;;;4918221;29;19922;-79
2020/12/08 00:55:36;;;;;;;;;;;23.40;35.00;;;;;;4902208;29;19923;-81
2020/12/08 00:58:02;;;;;;;;;;;23.00;35.60;;;;;;4932505;29;19958;-84
2020/12/08 01:00:29;;;;;;;;;;;23.30;35.10;;;;;;4927479;29;20266;-79
2020/12/08 01:02:56;;;;;;;;;;;23.40;34.50;;;;;;4924547;29;19911;-80
2020/12/08 01:05:22;;;;;;;;;;;24.40;34.40;;;;;;4927620;29;19911;-80
2020/12/08 01:07:50;;;;;;;;;;;23.90;34.50;;;;;;4907500;29;19914;-77
2020/12/08 01:10:16;;;;;;;;;;;24.20;34.00;;;;;;4935316;29;19961;-81
2020/12/08 01:12:43;;;;;;;;;;;23.90;33.00;;;;;;4910758;29;19953;-80
2020/12/08 01:15:10;;;;;;;;;;;23.70;33.30;;;;;;4916865;29;20351;-81
2020/12/08 01:17:36;;;;;;;;;;;23.80;33.20;;;;;;4917558;29;20270;-80
2020/12/08 01:20:04;;;;;;;;;;;24.20;32.30;;;;;;4918590;29;19982;-78
2020/12/08 01:22:30;;;;;;;;;;;24.30;32.50;;;;;;4927108;29;20005;-79
2020/12/08 01:25:00;;;;;;;;;;;24.10;33.90;;;;;;4934312;29;20277;-80
2020/12/08 01:27:26;;;;;;;;;;;24.40;33.20;;;;;;4923440;29;19910;-81
2020/12/08 01:29:57;;;;;;;;;;;24.00;33.60;;;;;;4915378;29;20270;-83
2020/12/08 01:32:24;;;;;;;;;;;24.20;33.50;;;;;;4916364;29;20279;-80
2020/12/08 01:34:52;;;;;;;;;;;24.20;33.50;;;;;;4917509;29;20330;-80
2020/12/08 01:37:19;;;;;;;;;;;24.30;33.70;;;;;;4904053;29;19926;-79
2020/12/08 01:39:45;;;;;;;;;;;24.80;31.60;;;;;;4940237;29;19910;-76
2020/12/08 01:42:12;;;;;;;;;;;24.70;33.60;;;;;;4921445;29;19914;-80
2020/12/08 01:44:41;;;;;;;;;;;24.30;32.70;;;;;;4916814;29;19930;-79
2020/12/08 01:47:08;;;;;;;;;;;23.80;33.70;;;;;;4916766;29;19910;-80
2020/12/08 01:49:35;;;;;;;;;;;23.20;35.90;;;;;;4917558;29;19915;-81
2020/12/08 01:52:01;;;;;;;;;;;23.30;38.60;;;;;;4918042;29;19973;-78
2020/12/08 01:54:28;;;;;;;;;;;23.20;38.70;;;;;;4916298;29;20338;-80
2020/12/08 01:56:55;;;;;;;;;;;23.10;39.20;;;;;;4903284;29;19934;-81
2020/12/08 01:59:21;;;;;;;;;;;23.10;39.30;;;;;;4929715;29;19910;-78
2020/12/08 02:01:51;;;;;;;;;;;23.10;39.00;;;;;;4927725;29;20289;-79
2020/12/08 02:04:17;;;;;;;;;;;23.10;40.30;;;;;;4905578;29;20396;-78
2020/12/08 02:06:44;;;;;;;;;;;23.10;39.10;;;;;;4918039;29;19984;-81
2020/12/08 02:09:11;;;;;;;;;;;22.80;39.10;;;;;;4919181;29;19957;-78
2020/12/08 02:11:37;;;;;;;;;;;22.60;41.50;;;;;;4931986;29;19966;-80
2020/12/08 02:14:05;;;;;;;;;;;22.90;40.30;;;;;;4928820;29;19919;-79
2020/12/08 02:16:37;;;;;;;;;;;22.90;40.00;;;;;;4902931;29;19951;-82
2020/12/08 02:19:05;;;;;;;;;;;22.70;40.70;;;;;;4907172;29;19919;-77
2020/12/08 02:21:33;;;;;;;;;;;22.60;42.10;;;;;;4921312;29;19915;-81
2020/12/08 02:24:02;;;;;;;;;;;22.60;41.90;;;;;;4917348;29;20002;-83
2020/12/08 02:27:02;;;;;;;;;;;22.50;41.70;;;;;;4916865;29;19911;-83
2020/12/08 02:29:29;;;;;;;;;;;22.40;42.20;;;;;;4918324;29;19911;-83
2020/12/08 02:31:57;;;;;;;;;;;22.40;42.80;;;;;;4903683;29;19906;-84
2020/12/08 02:34:25;;;;;;;;;;;22.30;43.00;;;;;;4935756;29;19906;-80
2020/12/08 02:36:58;;;;;;;;;;;22.10;43.50;;;;;;4921194;29;19919;-83
2020/12/08 02:39:28;;;;;;;;;;;22.00;45.30;;;;;;4918241;29;19911;-83
2020/12/08 02:41:55;;;;;;;;;;;22.10;45.30;;;;;;4916805;29;19911;-84
2020/12/08 02:44:28;;;;;;;;;;;21.90;45.00;;;;;;4919927;29;19907;-85
2020/12/08 02:46:55;;;;;;;;;;;21.90;45.50;;;;;;4918796;29;19954;-84
2020/12/08 02:49:22;;;;;;;;;;;21.60;45.10;;;;;;4939612;29;20390;-85
2020/12/08 02:51:49;;;;;;;;;;;21.60;45.20;;;;;;4913879;29;19962;-81
2020/12/08 02:54:16;;;;;;;;;;;21.60;45.10;;;;;;4917634;29;19922;-85
2020/12/08 02:56:42;;;;;;;;;;;21.70;45.00;;;;;;4917960;29;20024;-85
2020/12/08 02:59:09;;;;;;;;;;;21.80;45.20;;;;;;4898755;29;19994;-79
2020/12/08 03:01:36;;;;;;;;;;;21.90;45.50;;;;;;4881755;29;20355;-81
2020/12/08 03:04:04;;;;;;;;;;;22.00;45.40;;;;;;4931276;29;19918;-80
2020/12/08 03:06:31;;;;;;;;;;;22.10;45.20;;;;;;4908467;29;19938;-79
2020/12/08 03:08:57;;;;;;;;;;;21.90;45.60;;;;;;4916070;29;19911;-79
2020/12/08 03:11:34;;;;;;;;;;;21.80;46.30;;;;;;4901053;29;19911;-77
2020/12/08 03:14:01;;;;;;;;;;;21.90;47.10;;;;;;4920358;29;19911;-79
2020/12/08 03:16:29;;;;;;;;;;;22.00;46.40;;;;;;4919855;29;19926;-78
2020/12/08 03:18:56;;;;;;;;;;;21.70;48.10;;;;;;4919858;29;19953;-80
2020/12/08 03:21:23;;;;;;;;;;;21.60;48.00;;;;;;4919650;29;19961;-79
2020/12/08 03:23:49;;;;;;;;;;;21.60;49.10;;;;;;4902960;29;20010;-79
2020/12/08 03:26:24;;;;;;;;;;;21.60;48.20;;;;;;4919280;29;20402;-79
2020/12/08 03:28:50;;;;;;;;;;;21.50;47.30;;;;;;4929097;29;19907;-80
2020/12/08 03:31:17;;;;;;;;;;;21.70;47.90;;;;;;4931678;29;19949;-81
2020/12/08 03:33:44;;;;;;;;;;;21.60;47.70;;;;;;4919801;29;19907;-80
2020/12/08 03:36:14;;;;;;;;;;;21.50;47.70;;;;;;4919532;29;19943;-80
2020/12/08 03:38:44;;;;;;;;;;;21.60;47.70;;;;;;4920561;29;19911;-80
2020/12/08 03:41:11;;;;;;;;;;;21.40;48.20;;;;;;4921557;29;20405;-80
2020/12/08 03:43:37;;;;;;;;;;;21.50;47.80;;;;;;4920112;29;20377;-81
2020/12/08 03:46:04;;;;;;;;;;;21.30;47.70;;;;;;4919835;29;19907;-81
2020/12/08 03:48:31;;;;;;;;;;;21.30;48.10;;;;;;4919048;29;19918;-81
2020/12/08 03:50:57;;;;;;;;;;;21.30;48.40;;;;;;4902683;29;20266;-81
2020/12/08 03:53:24;;;;;;;;;;;21.50;47.60;;;;;;4920042;29;19985;-81
2020/12/08 03:55:51;;;;;;;;;;;21.60;47.70;;;;;;4919144;29;19942;-81
2020/12/08 03:58:20;;;;;;;;;;;21.70;48.20;;;;;;4918985;29;19911;-80
2020/12/08 04:00:48;;;;;;;;;;;21.60;47.50;;;;;;4919762;29;20002;-82
2020/12/08 04:03:14;;;;;;;;;;;21.50;47.30;;;;;;4902486;29;19911;-81
2020/12/08 04:05:44;;;;;;;;;;;21.50;46.90;;;;;;4918973;29;19907;-80
2020/12/08 04:08:10;;;;;;;;;;;21.50;47.30;;;;;;4918744;29;19918;-80
2020/12/08 04:10:41;;;;;;;;;;;21.50;47.30;;;;;;4919580;29;19965;-81
2020/12/08 04:13:08;;;;;;;;;;;21.50;46.70;;;;;;4933248;29;20366;-81
2020/12/08 04:15:34;;;;;;;;;;;21.50;46.70;;;;;;4919201;29;20371;-82
2020/12/08 04:18:01;;;;;;;;;;;21.40;47.30;;;;;;4918191;29;19963;-82
2020/12/08 04:20:28;;;;;;;;;;;21.50;47.60;;;;;;4917731;29;19969;-81
2020/12/08 04:22:54;;;;;;;;;;;21.50;47.90;;;;;;4917475;29;19911;-81
2020/12/08 04:25:21;;;;;;;;;;;21.30;47.40;;;;;;4919530;29;19921;-81
2020/12/08 04:27:48;;;;;;;;;;;21.30;49.00;;;;;;4920703;29;20042;-82
2020/12/08 04:30:17;;;;;;;;;;;21.30;48.70;;;;;;4941226;29;19911;-79
2020/12/08 04:32:43;;;;;;;;;;;21.30;48.40;;;;;;4926083;29;20310;-80
2020/12/08 04:35:10;;;;;;;;;;;21.20;48.70;;;;;;4918536;29;19914;-81
2020/12/08 04:37:40;;;;;;;;;;;21.20;48.80;;;;;;4901746;29;19962;-79
2020/12/08 04:40:06;;;;;;;;;;;21.40;49.00;;;;;;4917942;29;19907;-81
2020/12/08 04:42:33;;;;;;;;;;;21.40;48.20;;;;;;4918519;29;20285;-82
2020/12/08 04:45:00;;;;;;;;;;;21.40;49.20;;;;;;4918344;29;20306;-81
2020/12/08 04:47:27;;;;;;;;;;;21.50;48.50;;;;;;4918640;29;19924;-81
2020/12/08 04:49:53;;;;;;;;;;;21.40;48.80;;;;;;4918266;29;19907;-81
2020/12/08 04:52:20;;;;;;;;;;;21.50;48.70;;;;;;4901016;29;20017;-80
2020/12/08 04:54:47;;;;;;;;;;;21.50;48.50;;;;;;4918523;29;19941;-82
2020/12/08 04:57:16;;;;;;;;;;;21.30;49.00;;;;;;4917979;29;19927;-81
2020/12/08 04:59:43;;;;;;;;;;;21.30;49.00;;;;;;4883655;29;20006;-80
2020/12/08 05:02:11;;;;;;;;;;;21.30;48.40;;;;;;4908967;29;19915;-80
2020/12/08 05:04:37;;;;;;;;;;;21.20;49.00;;;;;;4917313;29;19991;-82
2020/12/08 05:07:05;;;;;;;;;;;21.30;50.20;;;;;;4918571;29;19911;-81
2020/12/08 05:09:45;;;;;;;;;;;21.30;49.50;;;;;;4900400;29;20273;-78
2020/12/08 05:12:14;;;;;;;;;;;21.30;49.20;;;;;;4918554;29;19911;-80
2020/12/08 05:14:41;;;;;;;;;;;21.30;49.20;;;;;;4900569;29;19982;-79
2020/12/08 05:17:09;;;;;;;;;;;21.30;49.90;;;;;;4917800;29;19926;-79
2020/12/08 05:19:39;;;;;;;;;;;21.10;49.60;;;;;;4916416;29;19938;-81
2020/12/08 05:22:10;;;;;;;;;;;21.10;50.00;;;;;;4916754;29;19911;-81
2020/12/08 05:24:37;;;;;;;;;;;21.10;50.20;;;;;;4917316;29;20033;-78
2020/12/08 05:27:07;;;;;;;;;;;21.20;49.70;;;;;;4917784;29;19911;-80
2020/12/08 05:29:35;;;;;;;;;;;21.10;50.50;;;;;;4917511;29;19963;-79
2020/12/08 05:32:20;;;;;;;;;;;21.00;50.40;;;;;;4917429;29;20053;-79
2020/12/08 05:34:51;;;;;;;;;;;21.00;50.30;;;;;;4917261;29;19990;-78
2020/12/08 05:37:19;;;;;;;;;;;20.90;50.30;;;;;;4916962;29;19930;-83
2020/12/08 05:39:46;;;;;;;;;;;20.80;50.20;;;;;;4917709;29;19914;-79
2020/12/08 05:42:19;;;;;;;;;;;20.80;51.10;;;;;;4906215;29;20359;-79
2020/12/08 05:44:49;;;;;;;;;;;20.80;50.80;;;;;;4881837;29;20039;-79
2020/12/08 05:47:19;;;;;;;;;;;20.90;51.10;;;;;;4880566;29;20013;-80
2020/12/08 05:49:46;;;;;;;;;;;21.00;49.80;;;;;;4895270;29;19915;-79
2020/12/08 05:52:19;;;;;;;;;;;21.00;49.50;;;;;;4908969;29;19911;-81
2020/12/08 05:54:45;;;;;;;;;;;20.90;49.80;;;;;;4914988;29;19922;-82
2020/12/08 05:57:16;;;;;;;;;;;20.70;50.70;;;;;;4915269;29;20013;-81
2020/12/08 05:59:46;;;;;;;;;;;20.70;50.30;;;;;;4915287;29;19915;-79
2020/12/08 06:02:13;;;;;;;;;;;20.80;50.50;;;;;;4913915;29;19911;-78
2020/12/08 06:04:42;;;;;;;;;;;20.90;50.90;;;;;;4897584;29;19911;-80
2020/12/08 06:07:12;;;;;;;;;;;20.90;50.10;;;;;;4915064;29;19914;-81
2020/12/08 06:09:38;;;;;;;;;;;20.80;50.70;;;;;;4897631;29;19907;-78
2020/12/08 06:12:15;;;;;;;;;;;20.90;50.70;;;;;;4914888;29;20045;-79
2020/12/08 06:14:42;;;;;;;;;;;20.90;49.90;;;;;;4911884;29;20263;-80
2020/12/08 06:17:08;;;;;;;;;;;20.90;50.00;;;;;;4914243;29;19938;-79
2020/12/08 06:19:44;;;;;;;;;;;20.80;49.80;;;;;;4915410;29;20259;-79
2020/12/08 06:22:12;;;;;;;;;;;20.80;50.30;;;;;;4915817;29;20715;-79
2020/12/08 06:24:52;;;;;;;;;;;20.70;50.50;;;;;;4930504;29;19907;-81
2020/12/08 06:27:23;;;;;;;;;;;20.70;50.00;;;;;;4923513;29;19922;-81
2020/12/08 06:29:53;;;;;;;;;;;20.60;51.30;;;;;;4917299;29;20014;-81
2020/12/08 06:32:27;;;;;;;;;;;20.60;52.00;;;;;;4916621;29;19942;-78
2020/12/08 06:35:12;;;;;;;;;;;20.60;51.60;;;;;;4916008;29;20385;-78
2020/12/08 06:37:49;;;;;;;;;;;20.60;51.30;;;;;;4914448;29;19954;-77
2020/12/08 06:40:18;;;;;;;;;;;20.50;50.90;;;;;;4908754;29;19903;-79
2020/12/08 06:42:46;;;;;;;;;;;20.50;51.00;;;;;;4928396;29;19907;-79
2020/12/08 06:45:14;;;;;;;;;;;20.40;50.70;;;;;;4915234;29;19911;-80
2020/12/08 06:47:42;;;;;;;;;;;20.30;52.00;;;;;;4921620;29;19911;-79
2020/12/08 06:50:29;;;;;;;;;;;20.40;51.60;;;;;;4924841;29;19918;-85
2020/12/08 06:52:58;;;;;;;;;;;20.60;51.60;;;;;;4918427;29;19966;-81
2020/12/08 06:55:25;;;;;;;;;;;20.60;51.50;;;;;;4898013;29;20449;-80
2020/12/08 06:57:53;;;;;;;;;;;20.60;50.90;;;;;;4900981;29;19915;-79
2020/12/08 07:00:20;;;;;;;;;;;20.50;51.80;;;;;;4901115;29;20385;-82
2020/12/08 07:02:50;;;;;;;;;;;20.40;52.50;;;;;;4916916;29;19916;-80
2020/12/08 07:05:21;;;;;;;;;;;20.30;51.90;;;;;;4918610;29;19918;-80
2020/12/08 07:07:49;;;;;;;;;;;20.30;51.70;;;;;;4902677;29;20029;-81
2020/12/08 07:10:17;;;;;;;;;;;20.30;52.00;;;;;;4918187;29;19915;-82
2020/12/08 07:12:52;;;;;;;;;;;20.10;52.90;;;;;;4918861;29;20002;-82
2020/12/08 07:15:22;;;;;;;;;;;20.10;53.10;;;;;;4919755;29;19921;-82
2020/12/08 07:17:56;;;;;;;;;;;20.20;53.40;;;;;;4918971;29;19930;-81
2020/12/08 07:20:23;;;;;;;;;;;20.10;52.80;;;;;;4915322;29;19915;-82
2020/12/08 07:22:50;;;;;;;;;;;20.00;52.80;;;;;;4918014;29;19983;-82
2020/12/08 07:25:17;;;;;;;;;;;20.10;52.40;;;;;;4919353;29;20370;-82
2020/12/08 07:27:47;;;;;;;;;;;20.20;52.60;;;;;;4904520;29;19919;-82
2020/12/08 07:30:14;;;;;;;;;;;20.20;53.00;;;;;;4917223;29;19918;-82
2020/12/08 07:32:41;;;;;;;;;;;20.30;52.20;;;;;;4917948;29;20441;-83
2020/12/08 07:35:18;;;;;;;;;;;20.20;52.10;;;;;;4916921;29;20408;-81
2020/12/08 07:37:44;;;;;;;;;;;20.10;52.70;;;;;;4918447;29;19919;-81
2020/12/08 07:40:14;;;;;;;;;;;20.00;53.60;;;;;;4916841;29;19973;-82
2020/12/08 07:42:53;;;;;;;;;;;20.00;53.20;;;;;;4906227;29;20013;-82
2020/12/08 07:45:20;;;;;;;;;;;20.00;54.00;;;;;;4917185;29;19918;-81
2020/12/08 07:47:58;;;;;;;;;;;20.00;53.50;;;;;;4918103;29;19911;-83
2020/12/08 07:50:29;;;;;;;;;;;20.00;53.10;;;;;;4901713;29;20405;-81
2020/12/08 07:53:00;;;;;;;;;;;19.90;52.10;;;;;;4924193;29;19914;-81
2020/12/08 07:55:29;;;;;;;;;;;19.80;52.60;;;;;;4919275;29;20441;-80
2020/12/08 07:57:56;;;;;;;;;;;19.70;53.10;;;;;;4928018;29;19915;-80
2020/12/08 08:00:29;;;;;;;;;;;19.70;53.60;;;;;;4917469;29;20317;-80
2020/12/08 08:02:56;;;;;;;;;;;19.70;53.60;;;;;;4935202;29;20039;-80
2020/12/08 08:05:29;;;;;;;;;;;19.60;54.00;;;;;;4926153;29;19915;-82
2020/12/08 08:07:56;;;;;;;;;;;19.60;53.90;;;;;;4904534;29;19908;-81
2020/12/08 08:10:23;;;;;;;;;;;19.60;54.10;;;;;;4913020;29;19911;-79
2020/12/08 08:12:49;;;;;;;;;;;19.60;53.90;;;;;;4916197;29;19926;-81
2020/12/08 08:15:19;;;;;;;;;;;19.60;54.20;;;;;;4916946;29;20409;-81
2020/12/08 08:17:48;;;;;;;;;;;19.50;54.70;;;;;;4928476;29;19922;-82
2020/12/08 08:20:15;;;;;;;;;;;19.40;55.20;;;;;;4899939;29;20001;-80
2020/12/08 08:22:41;;;;;;;;;;;19.30;56.00;;;;;;4927953;29;20017;-82
2020/12/08 08:25:08;;;;;;;;;;;19.20;56.50;;;;;;4918118;29;19914;-81
2020/12/08 08:27:38;;;;;;;;;;;19.30;56.50;;;;;;4920877;29;20337;-81
2020/12/08 08:30:05;;;;;;;;;;;19.30;56.50;;;;;;4920082;29;19911;-82
2020/12/08 08:32:38;;;;;;;;;;;19.30;56.50;;;;;;4933612;29;19914;-80
2020/12/08 08:35:04;;;;;;;;;;;19.20;56.80;;;;;;4920540;29;20413;-83
2020/12/08 08:37:32;;;;;;;;;;;19.30;56.40;;;;;;4912063;29;19919;-82
2020/12/08 08:39:59;;;;;;;;;;;19.10;56.40;;;;;;4927629;29;19911;-81
2020/12/08 08:42:25;;;;;;;;;;;19.20;56.70;;;;;;4920030;29;19914;-81
2020/12/08 08:44:52;;;;;;;;;;;19.20;56.60;;;;;;4918992;29;20059;-80
2020/12/08 08:47:19;;;;;;;;;;;19.10;56.50;;;;;;4925751;29;20054;-80
2020/12/08 08:49:49;;;;;;;;;;;19.20;56.80;;;;;;4934626;29;19976;-80
2020/12/08 08:52:17;;;;;;;;;;;19.20;56.60;;;;;;4925467;29;19915;-82
2020/12/08 08:54:43;;;;;;;;;;;19.10;56.80;;;;;;4935660;29;19921;-83
2020/12/08 08:57:10;;;;;;;;;;;19.20;56.60;;;;;;4928783;29;20274;-81
2020/12/08 08:59:37;;;;;;;;;;;19.10;56.30;;;;;;4918775;29;20247;-83
2020/12/08 09:02:05;;;;;;;;;;;19.10;56.90;;;;;;4925522;29;19911;-83
2020/12/08 09:04:32;;;;;;;;;;;19.20;56.80;;;;;;4935095;29;19907;-83
2020/12/08 09:07:01;;;;;;;;;;;19.10;57.00;;;;;;4925405;29;19911;-82
2020/12/08 09:09:28;;;;;;;;;;;19.00;57.20;;;;;;4918163;29;19914;-82
2020/12/08 09:11:55;;;;;;;;;;;18.90;57.50;;;;;;4931095;29;20323;-84
2020/12/08 09:14:23;;;;;;;;;;;18.90;57.70;;;;;;4912868;29;20369;-80
2020/12/08 09:16:49;;;;;;;;;;;18.80;57.70;;;;;;4916699;29;19930;-78
2020/12/08 09:19:16;;;;;;;;;;;18.70;58.20;;;;;;4916250;29;19911;-80
2020/12/08 09:21:43;;;;;;;;;;;18.70;58.20;;;;;;4917541;29;20445;-77
2020/12/08 09:24:11;;;;;;;;;;;18.70;58.50;;;;;;4915993;29;19969;-77
2020/12/08 09:26:41;;;;;;;;;;;18.80;58.50;;;;;;4894294;29;19938;-78
2020/12/08 09:29:08;;;;;;;;;;;18.80;58.20;;;;;;4913396;29;20370;-80
2020/12/08 09:31:35;;;;;;;;;;;18.80;58.10;;;;;;4905205;29;19915;-80
2020/12/08 09:34:02;;;;;;;;;;;18.80;58.20;;;;;;4918429;29;19911;-80
2020/12/08 09:36:29;;;;;;;;;;;18.70;58.40;;;;;;4926001;29;19921;-79
2020/12/08 09:38:56;;;;;;;;;;;18.70;58.50;;;;;;4933971;29;19914;-79
2020/12/08 09:41:22;;;;;;;;;;;18.60;58.70;;;;;;4925164;29;19911;-79
2020/12/08 09:43:49;;;;;;;;;;;18.60;58.60;;;;;;4926589;29;19959;-79
2020/12/08 09:46:18;;;;;;;;;;;18.60;58.70;;;;;;4913204;29;19918;-81
2020/12/08 09:48:45;;;;;;;;;;;18.60;59.00;;;;;;4914870;29;19934;-81
2020/12/08 09:51:12;;;;;;;;;;;18.70;59.10;;;;;;4915371;29;19918;-81
2020/12/08 09:53:39;;;;;;;;;;;18.70;59.00;;;;;;4914432;29;20370;-80
2020/12/08 09:56:08;;;;;;;;;;;18.70;59.00;;;;;;4917562;29;19969;-79
2020/12/08 09:58:34;;;;;;;;;;;18.70;58.80;;;;;;4915132;29;19917;-80
2020/12/08 10:01:01;;;;;;;;;;;18.70;58.80;;;;;;4914612;29;20358;-78
2020/12/08 10:03:28;;;;;;;;;;;18.60;58.40;;;;;;4914037;29;19926;-79
2020/12/08 10:05:55;;;;;;;;;;;18.60;58.20;;;;;;4911301;29;19995;-77
2020/12/08 10:08:23;;;;;;;;;;;18.60;58.40;;;;;;4914876;29;19921;-82
2020/12/08 10:10:51;;;;;;;;;;;18.60;58.20;;;;;;4912795;29;19958;-78
2020/12/08 10:13:19;;;;;;;;;;;18.60;58.60;;;;;;4896384;29;19907;-79
2020/12/08 10:15:45;;;;;;;;;;;18.70;57.80;;;;;;4913578;29;19927;-81
2020/12/08 10:18:12;;;;;;;;;;;18.60;57.70;;;;;;4914027;29;19911;-79
2020/12/08 10:20:39;;;;;;;;;;;18.60;59.10;;;;;;4913210;29;20076;-80
2020/12/08 10:23:06;;;;;;;;;;;18.50;58.40;;;;;;4914342;29;19910;-80
2020/12/08 10:25:33;;;;;;;;;;;18.50;58.80;;;;;;4912413;29;19911;-79
2020/12/08 10:28:00;;;;;;;;;;;18.50;58.80;;;;;;4914783;29;20062;-78
2020/12/08 10:30:27;;;;;;;;;;;18.50;58.80;;;;;;4913900;29;19911;-78
2020/12/08 10:32:54;;;;;;;;;;;18.50;58.50;;;;;;4913459;29;19907;-81
2020/12/08 10:35:20;;;;;;;;;;;18.50;58.90;;;;;;4917552;29;20404;-80
2020/12/08 10:37:47;;;;;;;;;;;18.40;59.10;;;;;;4916975;29;19942;-84
2020/12/08 10:40:18;;;;;;;;;;;18.50;59.20;;;;;;4914156;29;20255;-81
2020/12/08 10:42:44;;;;;;;;;;;18.50;59.20;;;;;;4918670;29;19915;-79
2020/12/08 10:45:11;;;;;;;;;;;18.40;59.00;;;;;;4916786;29;19910;-79
2020/12/08 10:47:38;;;;;;;;;;;18.40;59.20;;;;;;4915101;29;19988;-81
2020/12/08 10:50:05;;;;;;;;;;;18.40;59.50;;;;;;4914851;29;19946;-78
2020/12/08 10:52:35;;;;;;;;;;;18.50;60.10;;;;;;4913717;29;19990;-78
2020/12/08 10:55:02;;;;;;;;;;;18.50;59.10;;;;;;4914259;29;20410;-79
2020/12/08 10:57:29;;;;;;;;;;;18.40;59.10;;;;;;4914811;29;19926;-79
2020/12/08 10:59:59;;;;;;;;;;;18.40;59.20;;;;;;4896621;29;19944;-81
2020/12/08 11:02:26;;;;;;;;;;;18.40;59.30;;;;;;4914564;29;20424;-78
2020/12/08 11:04:53;;;;;;;;;;;18.40;59.50;;;;;;4914978;29;19935;-79
2020/12/08 11:07:20;;;;;;;;;;;18.40;59.30;;;;;;4914965;29;19993;-80
2020/12/08 11:09:48;;;;;;;;;;;18.40;59.20;;;;;;4915167;29;19990;-80
2020/12/08 11:12:16;;;;;;;;;;;18.30;59.00;;;;;;4914941;29;19911;-80
2020/12/08 11:14:43;;;;;;;;;;;18.30;59.20;;;;;;4914868;29;19918;-79
2020/12/08 11:17:10;;;;;;;;;;;18.30;59.30;;;;;;4911890;29;19923;-79
2020/12/08 11:19:37;;;;;;;;;;;18.30;59.20;;;;;;4915139;29;19907;-78
2020/12/08 11:22:11;;;;;;;;;;;18.30;59.40;;;;;;4914925;29;19911;-79
2020/12/08 11:24:41;;;;;;;;;;;18.30;59.50;;;;;;4913814;29;19911;-81
2020/12/08 11:27:22;;;;;;;;;;;18.30;59.50;;;;;;4915670;29;19962;-82
2020/12/08 11:29:49;;;;;;;;;;;18.30;59.60;;;;;;4915863;29;19907;-84
2020/12/08 11:32:16;;;;;;;;;;;18.30;59.30;;;;;;4919555;29;19954;-83
2020/12/08 11:34:47;;;;;;;;;;;18.30;59.40;;;;;;4919240;29;19960;-82
2020/12/08 11:37:14;;;;;;;;;;;18.30;59.50;;;;;;4921838;29;19926;-83
2020/12/08 11:39:41;;;;;;;;;;;18.30;59.60;;;;;;4920124;29;19950;-85
2020/12/08 11:42:08;;;;;;;;;;;18.30;59.70;;;;;;4919644;29;20011;-83
2020/12/08 11:44:35;;;;;;;;;;;18.20;60.70;;;;;;4923837;29;20014;-80
2020/12/08 11:47:02;;;;;;;;;;;18.30;60.40;;;;;;4920167;29;19922;-80
2020/12/08 11:49:36;;;;;;;;;;;18.30;60.00;;;;;;4923351;29;19934;-82
2020/12/08 11:52:04;;;;;;;;;;;18.30;60.20;;;;;;4919530;29;20334;-82
2020/12/08 11:54:30;;;;;;;;;;;18.20;60.20;;;;;;4914206;29;19958;-81
2020/12/08 11:56:57;;;;;;;;;;;18.20;60.50;;;;;;4920728;29;19921;-82
2020/12/08 11:59:27;;;;;;;;;;;18.20;60.50;;;;;;4920676;29;20425;-81
2020/12/08 12:01:54;;;;;;;;;;;18.10;60.50;;;;;;4917775;29;19914;-81
2020/12/08 12:04:21;;;;;;;;;;;18.10;60.70;;;;;;4917933;29;19911;-81
2020/12/08 12:06:50;;;;;;;;;;;18.20;60.80;;;;;;4917310;29;20325;-81
2020/12/08 12:09:17;;;;;;;;;;;18.20;61.20;;;;;;4916031;29;19978;-80
2020/12/08 12:11:45;;;;;;;;;;;18.20;61.50;;;;;;4903151;29;19914;-80
2020/12/08 12:14:13;;;;;;;;;;;18.20;60.90;;;;;;4923338;29;20305;-80
2020/12/08 12:16:40;;;;;;;;;;;18.30;60.90;;;;;;4914569;29;19930;-79
2020/12/08 12:19:10;;;;;;;;;;;18.20;61.20;;;;;;4918500;29;19908;-80
2020/12/08 12:21:36;;;;;;;;;;;18.20;61.00;;;;;;4915774;29;19985;-82
2020/12/08 12:24:05;;;;;;;;;;;18.20;61.30;;;;;;4898390;29;19915;-78
2020/12/08 12:26:32;;;;;;;;;;;18.10;61.90;;;;;;4916535;29;19965;-79
2020/12/08 12:28:59;;;;;;;;;;;18.20;61.90;;;;;;4916823;29;19907;-78
2020/12/08 12:31:26;;;;;;;;;;;18.10;62.50;;;;;;4898622;29;20473;-78
2020/12/08 12:33:53;;;;;;;;;;;18.20;62.30;;;;;;4917225;29;19907;-80
2020/12/08 12:36:21;;;;;;;;;;;18.10;62.30;;;;;;4917678;29;19929;-78
2020/12/08 12:38:50;;;;;;;;;;;18.10;62.70;;;;;;4919505;29;19914;-78
2020/12/08 12:41:23;;;;;;;;;;;18.10;62.90;;;;;;4926160;29;20033;-77
2020/12/08 12:43:50;;;;;;;;;;;18.00;63.30;;;;;;4933402;29;19918;-79
2020/12/08 12:46:17;;;;;;;;;;;18.10;63.60;;;;;;4920374;29;19911;-79
2020/12/08 12:48:45;;;;;;;;;;;18.00;63.20;;;;;;4916382;29;19911;-79
2020/12/08 12:51:12;;;;;;;;;;;18.10;63.50;;;;;;4916754;29;19969;-79
2020/12/08 12:53:39;;;;;;;;;;;18.00;63.00;;;;;;4916867;29;19911;-80
2020/12/08 12:56:05;;;;;;;;;;;18.10;63.20;;;;;;4917559;29;19918;-80
2020/12/08 12:58:32;;;;;;;;;;;18.00;63.10;;;;;;4917692;29;19951;-79
2020/12/08 13:00:59;;;;;;;;;;;18.00;63.30;;;;;;4935113;29;20122;-79
2020/12/08 13:03:26;;;;;;;;;;;18.00;63.30;;;;;;4928092;29;20002;-78
2020/12/08 13:05:52;;;;;;;;;;;18.10;63.50;;;;;;4917078;29;19918;-77
2020/12/08 13:08:19;;;;;;;;;;;18.10;63.00;;;;;;4916043;29;20314;-79
2020/12/08 13:10:46;;;;;;;;;;;18.10;63.50;;;;;;4935831;29;19961;-78
2020/12/08 13:13:13;;;;;;;;;;;18.10;62.90;;;;;;4936507;29;19917;-80
2020/12/08 13:15:55;;;;;;;;;;;;;;;;;;;;;
2020/12/08 13:18:22;;;;;;;;;;;18.10;63.30;;;;;;4917237;29;19930;-80
2020/12/08 13:20:53;;;;;;;;;;;18.00;63.20;;;;;;4934779;29;20215;-80
2020/12/08 13:23:19;;;;;;;;;;;18.00;63.10;;;;;;4935561;29;19942;-80
2020/12/08 13:25:46;;;;;;;;;;;17.90;63.10;;;;;;4935346;29;19911;-79
2020/12/08 13:28:13;;;;;;;;;;;17.90;63.30;;;;;;4934744;29;19906;-77
2020/12/08 13:30:40;;;;;;;;;;;17.90;63.40;;;;;;4917409;29;19919;-77
2020/12/08 13:33:10;;;;;;;;;;;17.80;63.40;;;;;;4927176;29;19922;-78
2020/12/08 13:35:36;;;;;;;;;;;17.80;63.50;;;;;;4930452;29;19915;-78
2020/12/08 13:38:03;;;;;;;;;;;17.80;63.30;;;;;;4927811;29;19946;-78
2020/12/08 13:40:30;;;;;;;;;;;17.80;63.50;;;;;;4917759;29;20079;-79
2020/12/08 13:42:57;;;;;;;;;;;17.90;63.10;;;;;;4915969;29;20008;-80
2020/12/08 13:45:23;;;;;;;;;;;17.80;63.40;;;;;;4915912;29;19907;-78
2020/12/08 13:47:50;;;;;;;;;;;17.70;63.20;;;;;;4917158;29;19911;-77
2020/12/08 13:50:17;;;;;;;;;;;17.80;63.30;;;;;;4930399;29;20294;-79
2020/12/08 13:52:44;;;;;;;;;;;17.70;63.30;;;;;;4934660;29;19926;-78
2020/12/08 13:55:11;;;;;;;;;;;17.70;63.10;;;;;;4923935;29;20011;-78
2020/12/08 13:57:38;;;;;;;;;;;17.70;63.70;;;;;;4925614;29;20362;-77
2020/12/08 14:00:05;;;;;;;;;;;17.60;63.70;;;;;;4928345;29;19907;-78
2020/12/08 14:02:33;;;;;;;;;;;17.60;64.30;;;;;;4926019;29;19918;-77
2020/12/08 14:05:00;;;;;;;;;;;17.60;64.10;;;;;;4915488;29;20002;-79
2020/12/08 14:07:27;;;;;;;;;;;17.60;64.20;;;;;;4917015;29;19911;-77
2020/12/08 14:09:54;;;;;;;;;;;17.60;65.00;;;;;;4915452;29;19962;-78
2020/12/08 14:12:21;;;;;;;;;;;17.60;64.00;;;;;;4929125;29;19998;-78
2020/12/08 14:14:48;;;;;;;;;;;17.60;64.30;;;;;;4915277;29;19929;-78
2020/12/08 14:17:14;;;;;;;;;;;17.60;64.20;;;;;;4916121;29;19918;-78
2020/12/08 14:19:41;;;;;;;;;;;17.60;64.20;;;;;;4914707;29;19938;-78
2020/12/08 14:22:08;;;;;;;;;;;17.60;64.20;;;;;;4918509;29;19926;-77
2020/12/08 14:24:37;;;;;;;;;;;17.50;64.20;;;;;;4899631;29;19925;-78